sensor_id;sensor_type;location;lat;lon;timestamp;P1;durP1;ratioP1;P2;durP2;ratioP2
14603;SDS011;7388;51.078;13.740;2023-04-15T00:00:41;4.35;;;3.75;;
14603;SDS011;7388;51.078;13.740;2023-04-15T00:03:07;3.40;;;3.10;;
14603;SDS011;7388;51.078;13.740;2023-04-15T00:05:33;4.40;;;3.77;;
14603;SDS011;7388;51.078;13.740;2023-04-15T00:07:59;3.30;;;3.00;;
14603;SDS011;7388;51.078;13.740;2023-04-15T00:10:25;4.20;;;3.47;;
14603;SDS011;7388;51.078;13.740;2023-04-15T00:12:52;3.33;;;3.03;;
14603;SDS011;7388;51.078;13.740;2023-04-15T00:15:18;4.35;;;3.45;;
14603;SDS011;7388;51.078;13.740;2023-04-15T00:17:44;3.55;;;3.25;;
14603;SDS011;7388;51.078;13.740;2023-04-15T00:20:11;4.18;;;3.78;;
14603;SDS011;7388;51.078;13.740;2023-04-15T00:22:36;2.97;;;2.67;;
14603;SDS011;7388;51.078;13.740;2023-04-15T00:25:02;3.70;;;3.40;;
14603;SDS011;7388;51.078;13.740;2023-04-15T00:27:28;3.75;;;3.45;;
14603;SDS011;7388;51.078;13.740;2023-04-15T00:29:54;4.43;;;3.60;;
14603;SDS011;7388;51.078;13.740;2023-04-15T00:32:20;4.40;;;2.90;;
14603;SDS011;7388;51.078;13.740;2023-04-15T00:34:46;2.60;;;2.33;;
14603;SDS011;7388;51.078;13.740;2023-04-15T00:37:11;3.33;;;2.97;;
14603;SDS011;7388;51.078;13.740;2023-04-15T00:39:37;3.50;;;3.20;;
14603;SDS011;7388;51.078;13.740;2023-04-15T00:42:03;2.70;;;2.20;;
14603;SDS011;7388;51.078;13.740;2023-04-15T00:44:29;3.97;;;2.58;;
14603;SDS011;7388;51.078;13.740;2023-04-15T00:46:56;3.35;;;2.90;;
14603;SDS011;7388;51.078;13.740;2023-04-15T00:49:22;2.72;;;2.42;;
14603;SDS011;7388;51.078;13.740;2023-04-15T00:51:48;3.30;;;2.55;;
14603;SDS011;7388;51.078;13.740;2023-04-15T00:54:15;4.07;;;3.72;;
14603;SDS011;7388;51.078;13.740;2023-04-15T00:56:41;3.37;;;2.93;;
14603;SDS011;7388;51.078;13.740;2023-04-15T00:59:07;3.53;;;2.97;;
14603;SDS011;7388;51.078;13.740;2023-04-15T01:01:34;3.90;;;3.33;;
14603;SDS011;7388;51.078;13.740;2023-04-15T01:04:00;3.20;;;2.90;;
14603;SDS011;7388;51.078;13.740;2023-04-15T01:06:27;2.72;;;2.53;;
14603;SDS011;7388;51.078;13.740;2023-04-15T01:08:53;3.72;;;2.90;;
14603;SDS011;7388;51.078;13.740;2023-04-15T01:11:19;2.90;;;2.60;;
14603;SDS011;7388;51.078;13.740;2023-04-15T01:13:46;4.80;;;4.15;;
14603;SDS011;7388;51.078;13.740;2023-04-15T01:16:12;3.67;;;3.22;;
14603;SDS011;7388;51.078;13.740;2023-04-15T01:18:38;3.95;;;3.33;;
14603;SDS011;7388;51.078;13.740;2023-04-15T01:21:05;3.00;;;2.42;;
14603;SDS011;7388;51.078;13.740;2023-04-15T01:23:32;2.95;;;2.65;;
14603;SDS011;7388;51.078;13.740;2023-04-15T01:26:01;4.07;;;3.35;;
14603;SDS011;7388;51.078;13.740;2023-04-15T01:28:27;4.72;;;4.25;;
14603;SDS011;7388;51.078;13.740;2023-04-15T01:31:06;4.70;;;4.30;;
14603;SDS011;7388;51.078;13.740;2023-04-15T01:33:32;4.43;;;4.03;;
14603;SDS011;7388;51.078;13.740;2023-04-15T01:35:57;5.10;;;4.47;;
14603;SDS011;7388;51.078;13.740;2023-04-15T01:38:25;3.43;;;3.10;;
14603;SDS011;7388;51.078;13.740;2023-04-15T01:40:51;3.15;;;2.80;;
14603;SDS011;7388;51.078;13.740;2023-04-15T01:43:18;4.45;;;3.65;;
14603;SDS011;7388;51.078;13.740;2023-04-15T01:45:44;4.00;;;3.00;;
14603;SDS011;7388;51.078;13.740;2023-04-15T01:48:10;3.50;;;3.20;;
14603;SDS011;7388;51.078;13.740;2023-04-15T01:50:36;3.60;;;3.30;;
14603;SDS011;7388;51.078;13.740;2023-04-15T01:53:02;4.10;;;3.20;;
14603;SDS011;7388;51.078;13.740;2023-04-15T01:55:28;3.63;;;2.78;;
14603;SDS011;7388;51.078;13.740;2023-04-15T01:57:55;3.85;;;2.97;;
14603;SDS011;7388;51.078;13.740;2023-04-15T02:00:21;4.45;;;3.45;;
14603;SDS011;7388;51.078;13.740;2023-04-15T02:02:47;3.67;;;2.90;;
14603;SDS011;7388;51.078;13.740;2023-04-15T02:05:13;4.10;;;3.75;;
14603;SDS011;7388;51.078;13.740;2023-04-15T02:07:41;4.00;;;3.55;;
14603;SDS011;7388;51.078;13.740;2023-04-15T02:10:07;4.47;;;3.58;;
14603;SDS011;7388;51.078;13.740;2023-04-15T02:12:34;4.18;;;3.58;;
14603;SDS011;7388;51.078;13.740;2023-04-15T02:15:00;3.63;;;2.83;;
14603;SDS011;7388;51.078;13.740;2023-04-15T02:17:29;3.43;;;3.13;;
14603;SDS011;7388;51.078;13.740;2023-04-15T02:19:55;3.08;;;2.78;;
14603;SDS011;7388;51.078;13.740;2023-04-15T02:22:21;3.80;;;3.30;;
14603;SDS011;7388;51.078;13.740;2023-04-15T02:24:47;4.40;;;3.73;;
14603;SDS011;7388;51.078;13.740;2023-04-15T02:27:16;3.47;;;2.97;;
14603;SDS011;7388;51.078;13.740;2023-04-15T02:29:42;2.97;;;2.70;;
14603;SDS011;7388;51.078;13.740;2023-04-15T02:32:10;3.10;;;2.60;;
14603;SDS011;7388;51.078;13.740;2023-04-15T02:34:39;4.00;;;3.00;;
14603;SDS011;7388;51.078;13.740;2023-04-15T02:37:07;3.45;;;2.80;;
14603;SDS011;7388;51.078;13.740;2023-04-15T02:39:33;3.97;;;3.13;;
14603;SDS011;7388;51.078;13.740;2023-04-15T02:41:59;3.17;;;2.88;;
14603;SDS011;7388;51.078;13.740;2023-04-15T02:44:25;3.30;;;2.93;;
14603;SDS011;7388;51.078;13.740;2023-04-15T02:46:51;3.95;;;3.22;;
14603;SDS011;7388;51.078;13.740;2023-04-15T02:49:21;3.15;;;2.70;;
14603;SDS011;7388;51.078;13.740;2023-04-15T02:51:47;3.13;;;2.83;;
14603;SDS011;7388;51.078;13.740;2023-04-15T02:54:20;3.40;;;2.30;;
14603;SDS011;7388;51.078;13.740;2023-04-15T02:56:49;3.88;;;3.00;;
14603;SDS011;7388;51.078;13.740;2023-04-15T02:59:19;5.10;;;3.30;;
14603;SDS011;7388;51.078;13.740;2023-04-15T03:01:45;4.07;;;3.67;;
14603;SDS011;7388;51.078;13.740;2023-04-15T03:04:10;3.60;;;3.20;;
14603;SDS011;7388;51.078;13.740;2023-04-15T03:06:37;4.38;;;3.25;;
14603;SDS011;7388;51.078;13.740;2023-04-15T03:09:03;4.03;;;3.63;;
14603;SDS011;7388;51.078;13.740;2023-04-15T03:11:28;3.50;;;3.20;;
14603;SDS011;7388;51.078;13.740;2023-04-15T03:13:55;3.53;;;3.03;;
14603;SDS011;7388;51.078;13.740;2023-04-15T03:16:21;4.07;;;2.97;;
14603;SDS011;7388;51.078;13.740;2023-04-15T03:18:47;4.20;;;3.40;;
14603;SDS011;7388;51.078;13.740;2023-04-15T03:21:12;4.17;;;3.57;;
14603;SDS011;7388;51.078;13.740;2023-04-15T03:23:38;3.17;;;2.70;;
14603;SDS011;7388;51.078;13.740;2023-04-15T03:26:04;3.40;;;3.03;;
14603;SDS011;7388;51.078;13.740;2023-04-15T03:28:30;4.17;;;3.47;;
14603;SDS011;7388;51.078;13.740;2023-04-15T03:30:56;4.03;;;3.50;;
14603;SDS011;7388;51.078;13.740;2023-04-15T03:33:22;3.95;;;3.10;;
14603;SDS011;7388;51.078;13.740;2023-04-15T03:35:49;3.70;;;3.40;;
14603;SDS011;7388;51.078;13.740;2023-04-15T03:38:16;5.97;;;3.67;;
14603;SDS011;7388;51.078;13.740;2023-04-15T03:40:42;4.30;;;3.90;;
14603;SDS011;7388;51.078;13.740;2023-04-15T03:43:08;3.58;;;2.90;;
14603;SDS011;7388;51.078;13.740;2023-04-15T03:45:34;4.37;;;3.97;;
14603;SDS011;7388;51.078;13.740;2023-04-15T03:47:59;4.30;;;3.90;;
14603;SDS011;7388;51.078;13.740;2023-04-15T03:50:25;7.10;;;3.87;;
14603;SDS011;7388;51.078;13.740;2023-04-15T03:52:51;4.18;;;3.75;;
14603;SDS011;7388;51.078;13.740;2023-04-15T03:55:17;4.20;;;3.80;;
14603;SDS011;7388;51.078;13.740;2023-04-15T03:57:44;4.45;;;4.05;;
14603;SDS011;7388;51.078;13.740;2023-04-15T04:00:10;3.40;;;3.10;;
14603;SDS011;7388;51.078;13.740;2023-04-15T04:02:35;4.27;;;3.47;;
14603;SDS011;7388;51.078;13.740;2023-04-15T04:05:01;3.63;;;3.30;;
14603;SDS011;7388;51.078;13.740;2023-04-15T04:07:28;4.85;;;3.47;;
14603;SDS011;7388;51.078;13.740;2023-04-15T04:09:54;5.63;;;4.07;;
14603;SDS011;7388;51.078;13.740;2023-04-15T04:12:21;5.05;;;4.55;;
14603;SDS011;7388;51.078;13.740;2023-04-15T04:14:47;4.60;;;4.20;;
14603;SDS011;7388;51.078;13.740;2023-04-15T04:17:12;4.53;;;3.90;;
14603;SDS011;7388;51.078;13.740;2023-04-15T04:19:38;6.50;;;3.90;;
14603;SDS011;7388;51.078;13.740;2023-04-15T04:22:04;5.53;;;4.33;;
14603;SDS011;7388;51.078;13.740;2023-04-15T04:24:30;4.88;;;4.47;;
14603;SDS011;7388;51.078;13.740;2023-04-15T04:26:56;3.43;;;3.13;;
14603;SDS011;7388;51.078;13.740;2023-04-15T04:29:22;8.57;;;5.63;;
14603;SDS011;7388;51.078;13.740;2023-04-15T04:31:48;3.87;;;3.47;;
14603;SDS011;7388;51.078;13.740;2023-04-15T04:34:14;5.70;;;4.30;;
14603;SDS011;7388;51.078;13.740;2023-04-15T04:36:40;5.00;;;4.32;;
14603;SDS011;7388;51.078;13.740;2023-04-15T04:39:06;4.90;;;3.90;;
14603;SDS011;7388;51.078;13.740;2023-04-15T04:41:32;4.20;;;3.70;;
14603;SDS011;7388;51.078;13.740;2023-04-15T04:43:57;4.40;;;3.40;;
14603;SDS011;7388;51.078;13.740;2023-04-15T04:46:23;5.22;;;4.63;;
14603;SDS011;7388;51.078;13.740;2023-04-15T04:48:49;4.90;;;4.30;;
14603;SDS011;7388;51.078;13.740;2023-04-15T04:51:15;4.57;;;4.17;;
14603;SDS011;7388;51.078;13.740;2023-04-15T04:53:41;4.20;;;3.80;;
14603;SDS011;7388;51.078;13.740;2023-04-15T04:56:07;4.50;;;3.60;;
14603;SDS011;7388;51.078;13.740;2023-04-15T04:58:33;4.53;;;3.80;;
14603;SDS011;7388;51.078;13.740;2023-04-15T05:00:59;6.53;;;5.50;;
14603;SDS011;7388;51.078;13.740;2023-04-15T05:03:24;5.30;;;4.40;;
14603;SDS011;7388;51.078;13.740;2023-04-15T05:05:51;4.30;;;3.55;;
14603;SDS011;7388;51.078;13.740;2023-04-15T05:08:17;5.57;;;4.73;;
14603;SDS011;7388;51.078;13.740;2023-04-15T05:10:43;4.97;;;4.30;;
14603;SDS011;7388;51.078;13.740;2023-04-15T05:13:08;5.20;;;4.70;;
14603;SDS011;7388;51.078;13.740;2023-04-15T05:15:34;5.70;;;5.10;;
14603;SDS011;7388;51.078;13.740;2023-04-15T05:18:01;5.45;;;4.28;;
14603;SDS011;7388;51.078;13.740;2023-04-15T05:20:27;5.90;;;4.70;;
14603;SDS011;7388;51.078;13.740;2023-04-15T05:22:52;5.43;;;4.73;;
14603;SDS011;7388;51.078;13.740;2023-04-15T05:25:18;5.67;;;5.03;;
14603;SDS011;7388;51.078;13.740;2023-04-15T05:27:44;5.00;;;4.50;;
14603;SDS011;7388;51.078;13.740;2023-04-15T05:30:10;5.27;;;4.77;;
14603;SDS011;7388;51.078;13.740;2023-04-15T05:32:36;5.80;;;5.30;;
14603;SDS011;7388;51.078;13.740;2023-04-15T05:35:01;6.27;;;5.30;;
14603;SDS011;7388;51.078;13.740;2023-04-15T05:37:27;6.97;;;5.90;;
14603;SDS011;7388;51.078;13.740;2023-04-15T05:39:53;6.90;;;5.70;;
14603;SDS011;7388;51.078;13.740;2023-04-15T05:42:19;6.93;;;5.20;;
14603;SDS011;7388;51.078;13.740;2023-04-15T05:44:44;7.53;;;5.67;;
14603;SDS011;7388;51.078;13.740;2023-04-15T05:47:10;7.33;;;5.53;;
14603;SDS011;7388;51.078;13.740;2023-04-15T05:49:36;6.90;;;5.80;;
14603;SDS011;7388;51.078;13.740;2023-04-15T05:52:02;5.63;;;5.13;;
14603;SDS011;7388;51.078;13.740;2023-04-15T05:54:28;6.60;;;4.83;;
14603;SDS011;7388;51.078;13.740;2023-04-15T05:56:53;5.23;;;3.90;;
14603;SDS011;7388;51.078;13.740;2023-04-15T05:59:20;5.55;;;4.50;;
14603;SDS011;7388;51.078;13.740;2023-04-15T06:01:46;5.27;;;4.40;;
14603;SDS011;7388;51.078;13.740;2023-04-15T06:04:11;4.30;;;3.80;;
14603;SDS011;7388;51.078;13.740;2023-04-15T06:06:37;4.60;;;3.67;;
14603;SDS011;7388;51.078;13.740;2023-04-15T06:09:03;5.27;;;4.60;;
14603;SDS011;7388;51.078;13.740;2023-04-15T06:11:29;6.43;;;5.40;;
14603;SDS011;7388;51.078;13.740;2023-04-15T06:13:55;4.43;;;4.03;;
14603;SDS011;7388;51.078;13.740;2023-04-15T06:16:21;5.55;;;4.95;;
14603;SDS011;7388;51.078;13.740;2023-04-15T06:18:47;3.80;;;3.40;;
14603;SDS011;7388;51.078;13.740;2023-04-15T06:21:15;6.03;;;3.42;;
14603;SDS011;7388;51.078;13.740;2023-04-15T06:23:40;6.28;;;2.60;;
14603;SDS011;7388;51.078;13.740;2023-04-15T06:26:06;3.10;;;2.07;;
14603;SDS011;7388;51.078;13.740;2023-04-15T06:28:32;2.40;;;1.83;;
14603;SDS011;7388;51.078;13.740;2023-04-15T06:30:58;2.00;;;1.73;;
14603;SDS011;7388;51.078;13.740;2023-04-15T06:33:25;2.15;;;1.73;;
14603;SDS011;7388;51.078;13.740;2023-04-15T06:35:51;2.00;;;1.20;;
14603;SDS011;7388;51.078;13.740;2023-04-15T06:38:16;1.47;;;1.00;;
14603;SDS011;7388;51.078;13.740;2023-04-15T06:40:42;2.00;;;1.30;;
14603;SDS011;7388;51.078;13.740;2023-04-15T06:43:08;2.00;;;1.43;;
14603;SDS011;7388;51.078;13.740;2023-04-15T06:45:34;1.67;;;1.30;;
14603;SDS011;7388;51.078;13.740;2023-04-15T06:48:00;1.30;;;0.93;;
14603;SDS011;7388;51.078;13.740;2023-04-15T06:50:25;1.73;;;1.30;;
14603;SDS011;7388;51.078;13.740;2023-04-15T06:52:53;2.75;;;1.65;;
14603;SDS011;7388;51.078;13.740;2023-04-15T06:55:19;1.88;;;1.55;;
14603;SDS011;7388;51.078;13.740;2023-04-15T06:57:45;1.90;;;1.70;;
14603;SDS011;7388;51.078;13.740;2023-04-15T07:00:11;1.70;;;1.07;;
14603;SDS011;7388;51.078;13.740;2023-04-15T07:02:37;2.05;;;1.77;;
14603;SDS011;7388;51.078;13.740;2023-04-15T07:05:03;2.33;;;1.30;;
14603;SDS011;7388;51.078;13.740;2023-04-15T07:07:30;1.75;;;1.23;;
14603;SDS011;7388;51.078;13.740;2023-04-15T07:09:55;2.07;;;1.13;;
14603;SDS011;7388;51.078;13.740;2023-04-15T07:12:21;1.40;;;1.13;;
14603;SDS011;7388;51.078;13.740;2023-04-15T07:14:47;1.30;;;0.90;;
14603;SDS011;7388;51.078;13.740;2023-04-15T07:17:13;1.60;;;1.17;;
14603;SDS011;7388;51.078;13.740;2023-04-15T07:19:39;2.45;;;1.75;;
14603;SDS011;7388;51.078;13.740;2023-04-15T07:22:05;1.70;;;1.30;;
14603;SDS011;7388;51.078;13.740;2023-04-15T07:24:31;1.50;;;0.90;;
14603;SDS011;7388;51.078;13.740;2023-04-15T07:26:57;2.40;;;1.27;;
14603;SDS011;7388;51.078;13.740;2023-04-15T07:29:23;2.63;;;1.20;;
14603;SDS011;7388;51.078;13.740;2023-04-15T07:31:50;2.55;;;1.92;;
14603;SDS011;7388;51.078;13.740;2023-04-15T07:34:16;2.83;;;1.80;;
14603;SDS011;7388;51.078;13.740;2023-04-15T07:36:43;2.08;;;1.63;;
14603;SDS011;7388;51.078;13.740;2023-04-15T07:39:10;2.10;;;0.90;;
14603;SDS011;7388;51.078;13.740;2023-04-15T07:41:36;1.57;;;1.07;;
14603;SDS011;7388;51.078;13.740;2023-04-15T07:44:02;2.55;;;1.80;;
14603;SDS011;7388;51.078;13.740;2023-04-15T07:46:28;2.40;;;1.50;;
14603;SDS011;7388;51.078;13.740;2023-04-15T07:48:53;2.00;;;1.23;;
14603;SDS011;7388;51.078;13.740;2023-04-15T07:51:19;1.80;;;1.30;;
14603;SDS011;7388;51.078;13.740;2023-04-15T07:53:48;2.58;;;1.33;;
14603;SDS011;7388;51.078;13.740;2023-04-15T07:56:14;1.40;;;1.00;;
14603;SDS011;7388;51.078;13.740;2023-04-15T07:58:40;2.90;;;1.60;;
14603;SDS011;7388;51.078;13.740;2023-04-15T08:01:06;1.55;;;1.13;;
14603;SDS011;7388;51.078;13.740;2023-04-15T08:03:32;2.00;;;0.93;;
14603;SDS011;7388;51.078;13.740;2023-04-15T08:05:58;1.73;;;0.90;;
14603;SDS011;7388;51.078;13.740;2023-04-15T08:08:24;1.00;;;0.50;;
14603;SDS011;7388;51.078;13.740;2023-04-15T08:10:50;1.10;;;0.55;;
14603;SDS011;7388;51.078;13.740;2023-04-15T08:13:16;1.40;;;0.80;;
14603;SDS011;7388;51.078;13.740;2023-04-15T08:15:42;2.25;;;1.25;;
14603;SDS011;7388;51.078;13.740;2023-04-15T08:18:08;1.43;;;0.90;;
14603;SDS011;7388;51.078;13.740;2023-04-15T08:20:34;1.48;;;0.98;;
14603;SDS011;7388;51.078;13.740;2023-04-15T08:23:01;3.78;;;1.05;;
14603;SDS011;7388;51.078;13.740;2023-04-15T08:25:27;2.13;;;1.00;;
14603;SDS011;7388;51.078;13.740;2023-04-15T08:27:56;1.90;;;1.15;;
14603;SDS011;7388;51.078;13.740;2023-04-15T08:30:22;1.95;;;1.15;;
14603;SDS011;7388;51.078;13.740;2023-04-15T08:32:48;1.70;;;1.20;;
14603;SDS011;7388;51.078;13.740;2023-04-15T08:35:14;1.60;;;1.10;;
14603;SDS011;7388;51.078;13.740;2023-04-15T08:37:40;1.60;;;1.10;;
14603;SDS011;7388;51.078;13.740;2023-04-15T08:40:06;2.72;;;1.50;;
14603;SDS011;7388;51.078;13.740;2023-04-15T08:42:40;1.63;;;0.88;;
14603;SDS011;7388;51.078;13.740;2023-04-15T08:45:08;1.75;;;0.90;;
14603;SDS011;7388;51.078;13.740;2023-04-15T08:47:37;2.50;;;1.65;;
14603;SDS011;7388;51.078;13.740;2023-04-15T08:50:04;2.45;;;1.95;;
14603;SDS011;7388;51.078;13.740;2023-04-15T08:52:33;1.90;;;1.25;;
14603;SDS011;7388;51.078;13.740;2023-04-15T08:54:59;2.28;;;1.70;;
14603;SDS011;7388;51.078;13.740;2023-04-15T08:57:27;4.43;;;1.77;;
14603;SDS011;7388;51.078;13.740;2023-04-15T08:59:57;2.15;;;1.58;;
14603;SDS011;7388;51.078;13.740;2023-04-15T09:02:23;2.03;;;1.42;;
14603;SDS011;7388;51.078;13.740;2023-04-15T09:04:51;2.60;;;2.40;;
14603;SDS011;7388;51.078;13.740;2023-04-15T09:07:17;5.35;;;3.10;;
14603;SDS011;7388;51.078;13.740;2023-04-15T09:09:43;4.00;;;2.67;;
14603;SDS011;7388;51.078;13.740;2023-04-15T09:12:10;6.53;;;5.33;;
14603;SDS011;7388;51.078;13.740;2023-04-15T09:14:36;3.83;;;3.40;;
14603;SDS011;7388;51.078;13.740;2023-04-15T09:17:04;3.85;;;3.55;;
14603;SDS011;7388;51.078;13.740;2023-04-15T09:19:34;3.80;;;3.42;;
14603;SDS011;7388;51.078;13.740;2023-04-15T09:21:59;3.87;;;3.50;;
14603;SDS011;7388;51.078;13.740;2023-04-15T09:24:33;4.82;;;4.32;;
14603;SDS011;7388;51.078;13.740;2023-04-15T09:27:05;4.10;;;3.70;;
14603;SDS011;7388;51.078;13.740;2023-04-15T09:29:31;5.47;;;4.78;;
14603;SDS011;7388;51.078;13.740;2023-04-15T09:32:08;5.10;;;4.50;;
14603;SDS011;7388;51.078;13.740;2023-04-15T09:34:37;6.75;;;5.55;;
14603;SDS011;7388;51.078;13.740;2023-04-15T09:37:03;4.57;;;4.10;;
14603;SDS011;7388;51.078;13.740;2023-04-15T09:39:43;4.30;;;3.90;;
14603;SDS011;7388;51.078;13.740;2023-04-15T09:42:14;4.90;;;4.13;;
14603;SDS011;7388;51.078;13.740;2023-04-15T09:44:41;4.47;;;4.05;;
14603;SDS011;7388;51.078;13.740;2023-04-15T09:47:07;4.43;;;3.47;;
14603;SDS011;7388;51.078;13.740;2023-04-15T09:49:33;4.33;;;3.60;;
14603;SDS011;7388;51.078;13.740;2023-04-15T09:51:59;4.47;;;3.43;;
14603;SDS011;7388;51.078;13.740;2023-04-15T09:54:35;4.95;;;3.25;;
14603;SDS011;7388;51.078;13.740;2023-04-15T09:57:08;3.70;;;3.30;;
14603;SDS011;7388;51.078;13.740;2023-04-15T09:59:34;4.72;;;3.80;;
14603;SDS011;7388;51.078;13.740;2023-04-15T10:02:01;5.00;;;4.30;;
14603;SDS011;7388;51.078;13.740;2023-04-15T10:04:30;4.30;;;3.90;;
14603;SDS011;7388;51.078;13.740;2023-04-15T10:06:59;3.90;;;3.50;;
14603;SDS011;7388;51.078;13.740;2023-04-15T10:09:27;5.28;;;4.00;;
14603;SDS011;7388;51.078;13.740;2023-04-15T10:11:54;4.20;;;3.65;;
14603;SDS011;7388;51.078;13.740;2023-04-15T10:14:20;4.60;;;4.17;;
14603;SDS011;7388;51.078;13.740;2023-04-15T10:16:47;5.78;;;4.10;;
14603;SDS011;7388;51.078;13.740;2023-04-15T10:19:14;5.05;;;3.60;;
14603;SDS011;7388;51.078;13.740;2023-04-15T10:21:42;4.75;;;3.45;;
14603;SDS011;7388;51.078;13.740;2023-04-15T10:24:09;3.97;;;3.42;;
14603;SDS011;7388;51.078;13.740;2023-04-15T10:26:35;3.85;;;3.45;;
14603;SDS011;7388;51.078;13.740;2023-04-15T10:29:02;4.13;;;3.65;;
14603;SDS011;7388;51.078;13.740;2023-04-15T10:31:28;3.92;;;3.50;;
14603;SDS011;7388;51.078;13.740;2023-04-15T10:33:55;4.60;;;4.15;;
14603;SDS011;7388;51.078;13.740;2023-04-15T10:36:21;5.03;;;4.63;;
14603;SDS011;7388;51.078;13.740;2023-04-15T10:38:47;5.17;;;4.27;;
14603;SDS011;7388;51.078;13.740;2023-04-15T10:41:20;5.20;;;4.70;;
14603;SDS011;7388;51.078;13.740;2023-04-15T10:46:42;5.45;;;4.88;;
14603;SDS011;7388;51.078;13.740;2023-04-15T10:49:11;5.15;;;4.60;;
14603;SDS011;7388;51.078;13.740;2023-04-15T10:51:38;5.20;;;4.70;;
14603;SDS011;7388;51.078;13.740;2023-04-15T10:54:12;4.80;;;4.30;;
14603;SDS011;7388;51.078;13.740;2023-04-15T10:59:36;5.53;;;4.70;;
14603;SDS011;7388;51.078;13.740;2023-04-15T11:02:04;5.95;;;4.25;;
14603;SDS011;7388;51.078;13.740;2023-04-15T11:07:34;5.63;;;4.53;;
14603;SDS011;7388;51.078;13.740;2023-04-15T11:10:00;5.65;;;5.15;;
14603;SDS011;7388;51.078;13.740;2023-04-15T11:12:33;4.80;;;4.30;;
14603;SDS011;7388;51.078;13.740;2023-04-15T11:15:23;4.82;;;4.35;;
14603;SDS011;7388;51.078;13.740;2023-04-15T11:20:40;5.28;;;4.25;;
14603;SDS011;7388;51.078;13.740;2023-04-15T11:23:09;4.32;;;3.92;;
14603;SDS011;7388;51.078;13.740;2023-04-15T11:25:36;4.47;;;4.07;;
14603;SDS011;7388;51.078;13.740;2023-04-15T11:28:02;4.30;;;3.50;;
14603;SDS011;7388;51.078;13.740;2023-04-15T11:30:35;3.67;;;3.38;;
14603;SDS011;7388;51.078;13.740;2023-04-15T11:33:02;5.03;;;4.53;;
14603;SDS011;7388;51.078;13.740;2023-04-15T11:35:29;5.68;;;4.80;;
14603;SDS011;7388;51.078;13.740;2023-04-15T11:37:56;3.15;;;2.85;;
14603;SDS011;7388;51.078;13.740;2023-04-15T11:40:25;3.35;;;3.05;;
14603;SDS011;7388;51.078;13.740;2023-04-15T11:43:03;3.88;;;3.30;;
14603;SDS011;7388;51.078;13.740;2023-04-15T11:45:33;3.47;;;3.17;;
14603;SDS011;7388;51.078;13.740;2023-04-15T11:48:07;3.58;;;2.95;;
14603;SDS011;7388;51.078;13.740;2023-04-15T11:50:34;3.65;;;2.75;;
14603;SDS011;7388;51.078;13.740;2023-04-15T11:53:04;2.63;;;2.40;;
14603;SDS011;7388;51.078;13.740;2023-04-15T11:55:44;4.55;;;3.13;;
14603;SDS011;7388;51.078;13.740;2023-04-15T12:00:52;3.33;;;3.03;;
14603;SDS011;7388;51.078;13.740;2023-04-15T12:08:51;3.28;;;2.97;;
14603;SDS011;7388;51.078;13.740;2023-04-15T12:13:57;4.03;;;3.70;;
14603;SDS011;7388;51.078;13.740;2023-04-15T12:16:34;4.32;;;3.40;;
14603;SDS011;7388;51.078;13.740;2023-04-15T12:19:03;2.65;;;2.25;;
14603;SDS011;7388;51.078;13.740;2023-04-15T12:21:35;2.60;;;2.40;;
14603;SDS011;7388;51.078;13.740;2023-04-15T12:24:03;2.88;;;2.58;;
14603;SDS011;7388;51.078;13.740;2023-04-15T12:26:42;2.25;;;2.05;;
14603;SDS011;7388;51.078;13.740;2023-04-15T12:29:09;2.60;;;2.25;;
14603;SDS011;7388;51.078;13.740;2023-04-15T12:31:36;2.70;;;2.50;;
14603;SDS011;7388;51.078;13.740;2023-04-15T12:34:10;3.90;;;2.80;;
14603;SDS011;7388;51.078;13.740;2023-04-15T12:36:38;3.00;;;2.40;;
14603;SDS011;7388;51.078;13.740;2023-04-15T12:39:04;2.67;;;2.47;;
14603;SDS011;7388;51.078;13.740;2023-04-15T12:41:31;5.90;;;2.17;;
14603;SDS011;7388;51.078;13.740;2023-04-15T12:43:57;2.90;;;2.17;;
14603;SDS011;7388;51.078;13.740;2023-04-15T12:46:23;2.78;;;2.20;;
14603;SDS011;7388;51.078;13.740;2023-04-15T12:48:49;3.58;;;2.78;;
14603;SDS011;7388;51.078;13.740;2023-04-15T12:51:17;3.88;;;2.47;;
14603;SDS011;7388;51.078;13.740;2023-04-15T12:53:43;3.80;;;2.45;;
14603;SDS011;7388;51.078;13.740;2023-04-15T12:56:09;2.50;;;2.30;;
14603;SDS011;7388;51.078;13.740;2023-04-15T12:58:35;3.37;;;2.57;;
14603;SDS011;7388;51.078;13.740;2023-04-15T13:01:01;2.72;;;2.35;;
14603;SDS011;7388;51.078;13.740;2023-04-15T13:03:27;2.63;;;2.42;;
14603;SDS011;7388;51.078;13.740;2023-04-15T13:05:53;2.07;;;1.87;;
14603;SDS011;7388;51.078;13.740;2023-04-15T13:08:18;3.13;;;2.40;;
14603;SDS011;7388;51.078;13.740;2023-04-15T13:10:44;4.80;;;3.80;;
14603;SDS011;7388;51.078;13.740;2023-04-15T13:13:10;3.25;;;2.40;;
14603;SDS011;7388;51.078;13.740;2023-04-15T13:15:36;5.20;;;4.13;;
14603;SDS011;7388;51.078;13.740;2023-04-15T13:18:02;4.17;;;2.90;;
14603;SDS011;7388;51.078;13.740;2023-04-15T13:20:31;3.17;;;2.88;;
14603;SDS011;7388;51.078;13.740;2023-04-15T13:22:56;4.20;;;3.80;;
14603;SDS011;7388;51.078;13.740;2023-04-15T13:25:22;2.70;;;2.27;;
14603;SDS011;7388;51.078;13.740;2023-04-15T13:27:48;3.37;;;2.83;;
14603;SDS011;7388;51.078;13.740;2023-04-15T13:30:14;3.63;;;3.00;;
14603;SDS011;7388;51.078;13.740;2023-04-15T13:32:40;2.67;;;1.70;;
14603;SDS011;7388;51.078;13.740;2023-04-15T13:35:05;3.33;;;2.67;;
14603;SDS011;7388;51.078;13.740;2023-04-15T13:37:31;3.03;;;2.72;;
14603;SDS011;7388;51.078;13.740;2023-04-15T13:39:57;3.40;;;2.80;;
14603;SDS011;7388;51.078;13.740;2023-04-15T13:42:23;4.40;;;3.70;;
14603;SDS011;7388;51.078;13.740;2023-04-15T13:44:49;3.90;;;2.90;;
14603;SDS011;7388;51.078;13.740;2023-04-15T13:47:18;3.63;;;2.75;;
14603;SDS011;7388;51.078;13.740;2023-04-15T13:49:44;4.57;;;3.65;;
14603;SDS011;7388;51.078;13.740;2023-04-15T13:52:10;6.00;;;3.90;;
14603;SDS011;7388;51.078;13.740;2023-04-15T13:54:37;4.53;;;3.45;;
14603;SDS011;7388;51.078;13.740;2023-04-15T13:57:02;4.78;;;3.85;;
14603;SDS011;7388;51.078;13.740;2023-04-15T13:59:29;6.05;;;5.13;;
14603;SDS011;7388;51.078;13.740;2023-04-15T14:01:55;5.03;;;4.20;;
14603;SDS011;7388;51.078;13.740;2023-04-15T14:04:21;5.87;;;3.47;;
14603;SDS011;7388;51.078;13.740;2023-04-15T14:06:46;4.70;;;4.20;;
14603;SDS011;7388;51.078;13.740;2023-04-15T14:09:13;5.90;;;3.67;;
14603;SDS011;7388;51.078;13.740;2023-04-15T14:11:39;3.30;;;2.92;;
14603;SDS011;7388;51.078;13.740;2023-04-15T14:14:05;6.47;;;4.50;;
14603;SDS011;7388;51.078;13.740;2023-04-15T14:16:31;7.13;;;5.40;;
14603;SDS011;7388;51.078;13.740;2023-04-15T14:18:58;3.33;;;3.03;;
14603;SDS011;7388;51.078;13.740;2023-04-15T14:21:24;4.30;;;3.00;;
14603;SDS011;7388;51.078;13.740;2023-04-15T14:23:51;7.22;;;3.38;;
14603;SDS011;7388;51.078;13.740;2023-04-15T14:26:17;3.60;;;2.63;;
14603;SDS011;7388;51.078;13.740;2023-04-15T14:28:43;3.92;;;3.40;;
14603;SDS011;7388;51.078;13.740;2023-04-15T14:31:09;2.67;;;2.47;;
14603;SDS011;7388;51.078;13.740;2023-04-15T14:33:35;3.10;;;2.80;;
14603;SDS011;7388;51.078;13.740;2023-04-15T14:36:01;16.87;;;12.50;;
14603;SDS011;7388;51.078;13.740;2023-04-15T14:38:27;4.33;;;3.30;;
14603;SDS011;7388;51.078;13.740;2023-04-15T14:40:53;4.20;;;3.50;;
14603;SDS011;7388;51.078;13.740;2023-04-15T14:43:19;16.17;;;10.83;;
14603;SDS011;7388;51.078;13.740;2023-04-15T14:45:45;4.75;;;4.22;;
14603;SDS011;7388;51.078;13.740;2023-04-15T14:48:11;4.30;;;3.67;;
14603;SDS011;7388;51.078;13.740;2023-04-15T14:50:37;5.27;;;4.43;;
14603;SDS011;7388;51.078;13.740;2023-04-15T14:53:04;3.55;;;3.10;;
14603;SDS011;7388;51.078;13.740;2023-04-15T14:55:30;3.43;;;2.87;;
14603;SDS011;7388;51.078;13.740;2023-04-15T14:57:55;5.10;;;3.93;;
14603;SDS011;7388;51.078;13.740;2023-04-15T15:00:21;4.30;;;3.47;;
14603;SDS011;7388;51.078;13.740;2023-04-15T15:02:47;3.03;;;2.53;;
14603;SDS011;7388;51.078;13.740;2023-04-15T15:05:12;3.20;;;2.90;;
14603;SDS011;7388;51.078;13.740;2023-04-15T15:07:38;3.33;;;3.00;;